sensor_id;sensor_type;location;lat;lon;timestamp;pressure;altitude;pressure_sealevel;temperature;humidity
57562;BME280;43397;51.530;5.974;2022-10-23T00:01:36;101050.03;;;13.01;100.00
57562;BME280;43397;51.530;5.974;2022-10-23T00:04:04;101055.56;;;12.88;100.00
57562;BME280;43397;51.530;5.974;2022-10-23T00:06:31;101047.63;;;12.82;100.00
57562;BME280;43397;51.530;5.974;2022-10-23T00:08:58;101044.97;;;12.82;100.00
57562;BME280;43397;51.530;5.974;2022-10-23T00:11:25;101044.94;;;12.84;100.00
57562;BME280;43397;51.530;5.974;2022-10-23T00:13:53;101036.09;;;12.80;100.00
57562;BME280;43397;51.530;5.974;2022-10-23T00:16:19;101033.41;;;12.85;100.00
57562;BME280;43397;51.530;5.974;2022-10-23T00:18:47;101029.19;;;12.68;100.00
57562;BME280;43397;51.530;5.974;2022-10-23T00:21:14;101024.69;;;12.70;100.00
57562;BME280;43397;51.530;5.974;2022-10-23T00:23:40;101022.09;;;12.67;100.00
57562;BME280;43397;51.530;5.974;2022-10-23T00:26:06;101026.50;;;12.70;100.00
57562;BME280;43397;51.530;5.974;2022-10-23T00:28:32;101023.78;;;12.73;100.00
57562;BME280;43397;51.530;5.974;2022-10-23T00:31:00;101017.66;;;12.65;100.00
57562;BME280;43397;51.530;5.974;2022-10-23T00:33:26;101022.91;;;12.69;100.00
57562;BME280;43397;51.530;5.974;2022-10-23T00:35:53;101016.78;;;12.63;100.00
57562;BME280;43397;51.530;5.974;2022-10-23T00:38:19;101019.56;;;12.57;100.00
57562;BME280;43397;51.530;5.974;2022-10-23T00:40:45;101022.19;;;12.58;100.00
57562;BME280;43397;51.530;5.974;2022-10-23T00:43:17;101009.81;;;12.54;100.00
57562;BME280;43397;51.530;5.974;2022-10-23T00:45:42;101005.31;;;12.59;100.00
57562;BME280;43397;51.530;5.974;2022-10-23T00:48:08;101002.66;;;12.56;100.00
57562;BME280;43397;51.530;5.974;2022-10-23T00:50:34;101009.66;;;12.65;100.00
57562;BME280;43397;51.530;5.974;2022-10-23T00:53:02;101008.94;;;12.52;100.00
57562;BME280;43397;51.530;5.974;2022-10-23T00:55:29;101018.66;;;12.56;100.00
57562;BME280;43397;51.530;5.974;2022-10-23T00:57:55;101031.09;;;12.59;100.00
57562;BME280;43397;51.530;5.974;2022-10-23T01:00:22;101026.44;;;12.73;100.00
57562;BME280;43397;51.530;5.974;2022-10-23T01:02:51;101022.97;;;12.68;100.00
57562;BME280;43397;51.530;5.974;2022-10-23T01:05:24;101026.41;;;12.76;100.00
57562;BME280;43397;51.530;5.974;2022-10-23T01:07:55;101026.50;;;12.68;100.00
57562;BME280;43397;51.530;5.974;2022-10-23T01:10:31;101015.84;;;12.68;100.00
57562;BME280;43397;51.530;5.974;2022-10-23T01:13:04;101019.38;;;12.70;100.00
57562;BME280;43397;51.530;5.974;2022-10-23T01:15:36;101012.38;;;12.60;100.00
57562;BME280;43397;51.530;5.974;2022-10-23T01:18:10;101006.34;;;12.49;100.00
57562;BME280;43397;51.530;5.974;2022-10-23T01:20:40;100998.38;;;12.46;100.00
57562;BME280;43397;51.530;5.974;2022-10-23T01:26:26;100996.59;;;12.45;100.00
57562;BME280;43397;51.530;5.974;2022-10-23T01:28:58;100999.22;;;12.49;100.00
57562;BME280;43397;51.530;5.974;2022-10-23T01:31:31;100997.38;;;12.54;100.00
57562;BME280;43397;51.530;5.974;2022-10-23T01:34:05;100998.25;;;12.53;100.00
57562;BME280;43397;51.530;5.974;2022-10-23T01:36:35;100990.34;;;12.49;100.00
57562;BME280;43397;51.530;5.974;2022-10-23T01:39:06;100993.88;;;12.49;100.00
57562;BME280;43397;51.530;5.974;2022-10-23T01:41:38;100993.81;;;12.54;100.00
57562;BME280;43397;51.530;5.974;2022-10-23T01:44:10;100987.59;;;12.53;100.00
57562;BME280;43397;51.530;5.974;2022-10-23T01:46:39;100978.81;;;12.47;100.00
57562;BME280;43397;51.530;5.974;2022-10-23T01:49:10;100978.75;;;12.51;100.00
57562;BME280;43397;51.530;5.974;2022-10-23T01:51:37;100978.72;;;12.54;100.00
57562;BME280;43397;51.530;5.974;2022-10-23T01:54:06;100979.53;;;12.58;100.00
57562;BME280;43397;51.530;5.974;2022-10-23T01:56:35;100970.66;;;12.56;100.00
57562;BME280;43397;51.530;5.974;2022-10-23T01:59:04;100962.66;;;12.59;100.00
57562;BME280;43397;51.530;5.974;2022-10-23T02:01:36;100960.94;;;12.53;100.00
57562;BME280;43397;51.530;5.974;2022-10-23T02:04:07;100960.09;;;12.51;100.00
57562;BME280;43397;51.530;5.974;2022-10-23T02:06:34;100960.06;;;12.54;100.00
57562;BME280;43397;51.530;5.974;2022-10-23T02:09:00;100961.00;;;12.50;100.00
57562;BME280;43397;51.530;5.974;2022-10-23T02:11:26;100961.81;;;12.54;100.00
57562;BME280;43397;51.530;5.974;2022-10-23T02:13:56;100960.84;;;12.61;100.00
57562;BME280;43397;51.530;5.974;2022-10-23T02:16:30;100964.47;;;12.54;100.00
57562;BME280;43397;51.530;5.974;2022-10-23T02:19:09;100959.06;;;12.60;100.00
57562;BME280;43397;51.530;5.974;2022-10-23T02:21:45;100959.94;;;12.61;100.00
57562;BME280;43397;51.530;5.974;2022-10-23T02:24:17;100964.38;;;12.62;100.00
57562;BME280;43397;51.530;5.974;2022-10-23T02:26:50;100965.31;;;12.58;100.00
57562;BME280;43397;51.530;5.974;2022-10-23T02:29:20;100958.28;;;12.53;100.00
57562;BME280;43397;51.530;5.974;2022-10-23T02:31:50;100955.59;;;12.57;100.00
57562;BME280;43397;51.530;5.974;2022-10-23T02:34:17;100952.00;;;12.56;100.00
57562;BME280;43397;51.530;5.974;2022-10-23T02:36:43;100951.13;;;12.55;100.00
57562;BME280;43397;51.530;5.974;2022-10-23T02:39:09;100950.28;;;12.52;100.00
57562;BME280;43397;51.530;5.974;2022-10-23T02:41:41;100951.22;;;12.49;100.00
57562;BME280;43397;51.530;5.974;2022-10-23T02:44:16;100961.78;;;12.59;100.00
57562;BME280;43397;51.530;5.974;2022-10-23T02:46:51;100956.31;;;12.65;100.00
57562;BME280;43397;51.530;5.974;2022-10-23T02:49:24;100952.84;;;12.60;100.00
57562;BME280;43397;51.530;5.974;2022-10-23T02:52:02;100947.69;;;12.49;100.00
57562;BME280;43397;51.530;5.974;2022-10-23T02:54:53;100938.81;;;12.48;100.00
57562;BME280;43397;51.530;5.974;2022-10-23T02:57:29;100930.03;;;12.40;100.00
57562;BME280;43397;51.530;5.974;2022-10-23T03:00:00;100929.94;;;12.48;100.00
57562;BME280;43397;51.530;5.974;2022-10-23T03:02:34;100918.50;;;12.41;100.00
57562;BME280;43397;51.530;5.974;2022-10-23T03:05:04;100910.53;;;12.37;100.00
57562;BME280;43397;51.530;5.974;2022-10-23T03:07:31;100904.31;;;12.39;100.00
57562;BME280;43397;51.530;5.974;2022-10-23T03:09:57;100895.38;;;12.40;100.00
57562;BME280;43397;51.530;5.974;2022-10-23T03:12:23;100892.72;;;12.40;100.00
57562;BME280;43397;51.530;5.974;2022-10-23T03:14:48;100882.94;;;12.41;100.00
57562;BME280;43397;51.530;5.974;2022-10-23T03:17:14;100879.28;;;12.48;100.00
57562;BME280;43397;51.530;5.974;2022-10-23T03:19:40;100883.84;;;12.40;100.00
57562;BME280;43397;51.530;5.974;2022-10-23T03:22:08;100875.06;;;12.33;100.00
57562;BME280;43397;51.530;5.974;2022-10-23T03:24:35;100884.78;;;12.35;100.00
57562;BME280;43397;51.530;5.974;2022-10-23T03:27:01;100878.59;;;12.33;100.00
57562;BME280;43397;51.530;5.974;2022-10-23T03:29:26;100874.13;;;12.35;100.00
57562;BME280;43397;51.530;5.974;2022-10-23T03:31:53;100885.81;;;12.28;100.00
57562;BME280;43397;51.530;5.974;2022-10-23T03:34:19;100872.44;;;12.30;100.00
57562;BME280;43397;51.530;5.974;2022-10-23T03:36:45;100860.88;;;12.32;100.00
57562;BME280;43397;51.530;5.974;2022-10-23T03:39:12;100847.59;;;12.28;100.00
57562;BME280;43397;51.530;5.974;2022-10-23T03:41:38;100849.28;;;12.33;100.00
57562;BME280;43397;51.530;5.974;2022-10-23T03:44:03;100851.16;;;12.28;100.00
57562;BME280;43397;51.530;5.974;2022-10-23T03:46:29;100849.34;;;12.30;100.00
57562;BME280;43397;51.530;5.974;2022-10-23T03:48:55;100846.63;;;12.33;100.00
57562;BME280;43397;51.530;5.974;2022-10-23T03:51:24;100851.09;;;12.30;100.00
57562;BME280;43397;51.530;5.974;2022-10-23T03:53:50;100849.38;;;12.27;100.00
57562;BME280;43397;51.530;5.974;2022-10-23T03:56:17;100846.72;;;12.27;100.00
57562;BME280;43397;51.530;5.974;2022-10-23T03:58:42;100841.13;;;12.43;100.00
57562;BME280;43397;51.530;5.974;2022-10-23T04:01:08;100835.03;;;12.36;100.00
57562;BME280;43397;51.530;5.974;2022-10-23T04:03:34;100840.34;;;12.39;100.00
57562;BME280;43397;51.530;5.974;2022-10-23T04:06:00;100841.19;;;12.40;100.00
57562;BME280;43397;51.530;5.974;2022-10-23T04:08:26;100842.94;;;12.41;100.00
57562;BME280;43397;51.530;5.974;2022-10-23T04:10:52;100843.00;;;12.39;100.00
57562;BME280;43397;51.530;5.974;2022-10-23T04:13:20;100831.44;;;12.39;100.00
57562;BME280;43397;51.530;5.974;2022-10-23T04:15:50;100828.66;;;12.45;100.00
57562;BME280;43397;51.530;5.974;2022-10-23T04:18:17;100819.03;;;12.36;100.00
57562;BME280;43397;51.530;5.974;2022-10-23T04:20:43;100810.97;;;12.41;100.00
57562;BME280;43397;51.530;5.974;2022-10-23T04:23:09;100809.97;;;12.48;100.00
57562;BME280;43397;51.530;5.974;2022-10-23T04:25:35;100810.00;;;12.46;100.00
57562;BME280;43397;51.530;5.974;2022-10-23T04:28:00;100808.34;;;12.39;100.00
57562;BME280;43397;51.530;5.974;2022-10-23T04:30:27;100808.38;;;12.38;100.00
57562;BME280;43397;51.530;5.974;2022-10-23T04:32:53;100801.31;;;12.35;100.00
57562;BME280;43397;51.530;5.974;2022-10-23T04:35:19;100798.53;;;12.41;100.00
57562;BME280;43397;51.530;5.974;2022-10-23T04:37:45;100791.44;;;12.40;100.00
57562;BME280;43397;51.530;5.974;2022-10-23T04:40:11;100806.50;;;12.43;100.00
57562;BME280;43397;51.530;5.974;2022-10-23T04:42:37;100794.94;;;12.44;100.00
57562;BME280;43397;51.530;5.974;2022-10-23T04:45:03;100801.91;;;12.51;100.00
57562;BME280;43397;51.530;5.974;2022-10-23T04:47:31;100785.91;;;12.52;100.00
57562;BME280;43397;51.530;5.974;2022-10-23T04:49:56;100787.66;;;12.53;100.00
57562;BME280;43397;51.530;5.974;2022-10-23T04:52:22;100796.59;;;12.49;100.00
57562;BME280;43397;51.530;5.974;2022-10-23T04:54:48;100804.56;;;12.52;100.00
57562;BME280;43397;51.530;5.974;2022-10-23T04:57:14;100803.72;;;12.50;100.00
57562;BME280;43397;51.530;5.974;2022-10-23T04:59:40;100804.47;;;12.57;100.00
57562;BME280;43397;51.530;5.974;2022-10-23T05:02:06;100799.19;;;12.54;100.00
57562;BME280;43397;51.530;5.974;2022-10-23T05:04:33;100800.97;;;12.53;100.00
57562;BME280;43397;51.530;5.974;2022-10-23T05:06:58;100800.91;;;12.58;100.00
57562;BME280;43397;51.530;5.974;2022-10-23T05:09:24;100800.78;;;12.64;100.00
57562;BME280;43397;51.530;5.974;2022-10-23T05:11:50;100794.69;;;12.58;100.00
57562;BME280;43397;51.530;5.974;2022-10-23T05:14:16;100792.94;;;12.57;100.00
57562;BME280;43397;51.530;5.974;2022-10-23T05:16:45;100785.84;;;12.55;100.00
57562;BME280;43397;51.530;5.974;2022-10-23T05:19:17;100781.44;;;12.54;100.00
57562;BME280;43397;51.530;5.974;2022-10-23T05:21:47;100788.47;;;12.59;100.00
57562;BME280;43397;51.530;5.974;2022-10-23T05:24:14;100782.16;;;12.63;100.00
57562;BME280;43397;51.530;5.974;2022-10-23T05:26:40;100777.72;;;12.63;100.00
57562;BME280;43397;51.530;5.974;2022-10-23T05:29:05;100770.59;;;12.64;100.00
57562;BME280;43397;51.530;5.974;2022-10-23T05:31:32;100767.09;;;12.60;100.00
57562;BME280;43397;51.530;5.974;2022-10-23T05:33:59;100771.47;;;12.63;100.00
57562;BME280;43397;51.530;5.974;2022-10-23T05:36:26;100764.31;;;12.66;100.00
57562;BME280;43397;51.530;5.974;2022-10-23T05:38:53;100766.00;;;12.72;100.00
57562;BME280;43397;51.530;5.974;2022-10-23T05:41:19;100766.97;;;12.68;100.00
57562;BME280;43397;51.530;5.974;2022-10-23T05:43:45;100761.66;;;12.66;100.00
57562;BME280;43397;51.530;5.974;2022-10-23T05:46:11;100765.25;;;12.65;100.00
57562;BME280;43397;51.530;5.974;2022-10-23T05:48:37;100755.47;;;12.63;100.00
57562;BME280;43397;51.530;5.974;2022-10-23T05:51:04;100751.00;;;12.66;100.00
57562;BME280;43397;51.530;5.974;2022-10-23T05:53:30;100750.16;;;12.63;100.00
57562;BME280;43397;51.530;5.974;2022-10-23T05:56:02;100750.16;;;12.63;100.00
57562;BME280;43397;51.530;5.974;2022-10-23T05:58:29;100742.97;;;12.66;100.00
57562;BME280;43397;51.530;5.974;2022-10-23T06:00:54;100751.94;;;12.64;100.00
57562;BME280;43397;51.530;5.974;2022-10-23T06:03:20;100752.81;;;12.63;100.00
57562;BME280;43397;51.530;5.974;2022-10-23T06:05:48;100749.16;;;12.68;100.00
57562;BME280;43397;51.530;5.974;2022-10-23T06:08:14;100749.16;;;12.70;100.00
57562;BME280;43397;51.530;5.974;2022-10-23T06:10:40;100737.16;;;12.91;100.00
57562;BME280;43397;51.530;5.974;2022-10-23T06:13:07;100738.44;;;13.16;100.00
57562;BME280;43397;51.530;5.974;2022-10-23T06:15:32;100736.53;;;13.22;100.00
57562;BME280;43397;51.530;5.974;2022-10-23T06:17:59;100740.13;;;13.22;100.00
57562;BME280;43397;51.530;5.974;2022-10-23T06:20:25;100730.66;;;13.06;100.00
57562;BME280;43397;51.530;5.974;2022-10-23T06:22:51;100723.84;;;12.91;100.00
57562;BME280;43397;51.530;5.974;2022-10-23T06:25:17;100733.72;;;12.87;100.00
57562;BME280;43397;51.530;5.974;2022-10-23T06:27:42;100725.94;;;12.73;100.00
57562;BME280;43397;51.530;5.974;2022-10-23T06:30:11;100724.22;;;12.72;100.00
57562;BME280;43397;51.530;5.974;2022-10-23T06:32:37;100724.22;;;12.72;100.00
57562;BME280;43397;51.530;5.974;2022-10-23T06:35:03;100726.78;;;12.77;100.00
57562;BME280;43397;51.530;5.974;2022-10-23T06:37:29;100725.84;;;12.78;100.00
57562;BME280;43397;51.530;5.974;2022-10-23T06:39:57;100721.53;;;12.74;100.00
57562;BME280;43397;51.530;5.974;2022-10-23T06:42:23;100735.75;;;12.73;100.00
57562;BME280;43397;51.530;5.974;2022-10-23T06:44:49;100725.94;;;12.75;100.00
57562;BME280;43397;51.530;5.974;2022-10-23T06:47:16;100721.53;;;12.74;100.00
57562;BME280;43397;51.530;5.974;2022-10-23T06:49:42;100718.75;;;12.79;100.00
57562;BME280;43397;51.530;5.974;2022-10-23T06:52:08;100719.63;;;12.81;100.00
57562;BME280;43397;51.530;5.974;2022-10-23T06:54:34;100717.81;;;12.81;100.00
57562;BME280;43397;51.530;5.974;2022-10-23T06:57:00;100712.47;;;12.81;100.00
57562;BME280;43397;51.530;5.974;2022-10-23T06:59:26;100707.16;;;12.81;100.00
57562;BME280;43397;51.530;5.974;2022-10-23T07:01:52;100705.34;;;12.82;100.00
57562;BME280;43397;51.530;5.974;2022-10-23T07:04:19;100709.78;;;12.83;100.00
57562;BME280;43397;51.530;5.974;2022-10-23T07:06:45;100705.25;;;12.86;100.00
57562;BME280;43397;51.530;5.974;2022-10-23T07:09:12;100710.50;;;12.91;100.00
57562;BME280;43397;51.530;5.974;2022-10-23T07:11:37;100696.28;;;12.90;100.00
57562;BME280;43397;51.530;5.974;2022-10-23T07:14:04;100696.25;;;12.93;100.00
57562;BME280;43397;51.530;5.974;2022-10-23T07:16:30;100696.09;;;13.00;100.00
57562;BME280;43397;51.530;5.974;2022-10-23T07:18:58;100701.31;;;13.04;100.00
57562;BME280;43397;51.530;5.974;2022-10-23T07:21:30;100694.16;;;13.06;100.00
57562;BME280;43397;51.530;5.974;2022-10-23T07:23:56;100701.31;;;13.06;100.00
57562;BME280;43397;51.530;5.974;2022-10-23T07:26:21;100695.97;;;13.06;100.00
57562;BME280;43397;51.530;5.974;2022-10-23T07:28:48;100691.44;;;13.11;100.00
57562;BME280;43397;51.530;5.974;2022-10-23T07:31:14;100692.13;;;13.19;100.00
57562;BME280;43397;51.530;5.974;2022-10-23T07:33:40;100693.06;;;13.16;100.00
57562;BME280;43397;51.530;5.974;2022-10-23T07:36:07;100691.25;;;13.18;100.00
57562;BME280;43397;51.530;5.974;2022-10-23T07:38:34;100685.03;;;13.20;100.00
57562;BME280;43397;51.530;5.974;2022-10-23T07:41:01;100682.28;;;13.21;100.00
57562;BME280;43397;51.530;5.974;2022-10-23T07:43:27;100687.47;;;13.30;100.00
57562;BME280;43397;51.530;5.974;2022-10-23T07:45:53;100678.59;;;13.30;100.00
57562;BME280;43397;51.530;5.974;2022-10-23T07:48:19;100670.53;;;13.31;100.00
57562;BME280;43397;51.530;5.974;2022-10-23T07:50:45;100677.59;;;13.34;100.00
57562;BME280;43397;51.530;5.974;2022-10-23T07:53:15;100679.28;;;13.38;100.00
57562;BME280;43397;51.530;5.974;2022-10-23T07:55:43;100676.50;;;13.43;100.00
57562;BME280;43397;51.530;5.974;2022-10-23T07:58:15;100670.16;;;13.48;100.00
57562;BME280;43397;51.530;5.974;2022-10-23T08:00:41;100670.09;;;13.51;100.00
57562;BME280;43397;51.530;5.974;2022-10-23T08:03:07;100669.06;;;13.57;100.00
57562;BME280;43397;51.530;5.974;2022-10-23T08:05:33;100672.47;;;13.64;100.00
57562;BME280;43397;51.530;5.974;2022-10-23T08:07:58;100659.13;;;13.64;100.00
57562;BME280;43397;51.530;5.974;2022-10-23T08:10:24;100659.81;;;13.72;100.00
57562;BME280;43397;51.530;5.974;2022-10-23T08:12:51;100665.91;;;13.77;100.00
57562;BME280;43397;51.530;5.974;2022-10-23T08:15:17;100663.25;;;13.77;100.00
57562;BME280;43397;51.530;5.974;2022-10-23T08:17:43;100664.97;;;13.79;100.00
57562;BME280;43397;51.530;5.974;2022-10-23T08:20:09;100662.19;;;13.84;100.00
57562;BME280;43397;51.530;5.974;2022-10-23T08:22:35;100673.44;;;13.97;100.00
57562;BME280;43397;51.530;5.974;2022-10-23T08:25:01;100656.53;;;13.96;100.00
57562;BME280;43397;51.530;5.974;2022-10-23T08:27:27;100656.44;;;13.99;100.00
57562;BME280;43397;51.530;5.974;2022-10-23T08:29:54;100658.13;;;14.04;100.00
57562;BME280;43397;51.530;5.974;2022-10-23T08:32:20;100657.09;;;14.09;100.00
57562;BME280;43397;51.530;5.974;2022-10-23T08:34:46;100652.75;;;14.05;100.00
57562;BME280;43397;51.530;5.974;2022-10-23T08:37:12;100660.69;;;14.08;100.00
57562;BME280;43397;51.530;5.974;2022-10-23T08:39:37;100654.44;;;14.09;100.00
57562;BME280;43397;51.530;5.974;2022-10-23T08:42:03;100649.09;;;14.09;100.00
57562;BME280;43397;51.530;5.974;2022-10-23T08:44:31;100637.34;;;14.15;100.00
57562;BME280;43397;51.530;5.974;2022-10-23T08:47:03;100633.78;;;14.14;100.00
57562;BME280;43397;51.530;5.974;2022-10-23T08:49:38;100644.38;;;14.17;100.00
57562;BME280;43397;51.530;5.974;2022-10-23T08:52:13;100640.59;;;14.26;100.00
57562;BME280;43397;51.530;5.974;2022-10-23T08:54:51;100629.84;;;14.29;100.00
57562;BME280;43397;51.530;5.974;2022-10-23T08:57:18;100634.09;;;14.36;100.00
57562;BME280;43397;51.530;5.974;2022-10-23T08:59:48;100628.78;;;14.35;100.00
57562;BME280;43397;51.530;5.974;2022-10-23T09:02:20;100622.41;;;14.40;100.00
57562;BME280;43397;51.530;5.974;2022-10-23T09:04:50;100631.22;;;14.44;100.00
57562;BME280;43397;51.530;5.974;2022-10-23T09:07:19;100630.28;;;14.45;100.00
57562;BME280;43397;51.530;5.974;2022-10-23T09:09:57;100629.44;;;14.43;100.00
57562;BME280;43397;51.530;5.974;2022-10-23T09:12:28;100623.94;;;14.49;100.00
57562;BME280;43397;51.530;5.974;2022-10-23T09:15:03;100615.94;;;14.48;100.00
57562;BME280;43397;51.530;5.974;2022-10-23T09:17:34;100604.22;;;14.55;100.00
57562;BME280;43397;51.530;5.974;2022-10-23T09:20:10;100596.19;;;14.53;100.00
57562;BME280;43397;51.530;5.974;2022-10-23T09:22:37;100589.97;;;14.53;100.00
57562;BME280;43397;51.530;5.974;2022-10-23T09:25:08;100595.34;;;14.51;100.00
57562;BME280;43397;51.530;5.974;2022-10-23T09:27:34;100593.50;;;14.55;100.00
57562;BME280;43397;51.530;5.974;2022-10-23T09:30:00;100594.34;;;14.57;100.00
57562;BME280;43397;51.530;5.974;2022-10-23T09:32:35;100592.41;;;14.62;100.00
57562;BME280;43397;51.530;5.974;2022-10-23T09:35:01;100586.19;;;14.62;100.00
57562;BME280;43397;51.530;5.974;2022-10-23T09:37:29;100579.91;;;14.63;100.00
57562;BME280;43397;51.530;5.974;2022-10-23T09:40:14;100573.50;;;14.68;100.00
57562;BME280;43397;51.530;5.974;2022-10-23T09:42:59;100563.56;;;14.72;100.00
57562;BME280;43397;51.530;5.974;2022-10-23T09:45:28;100566.94;;;14.78;100.00
57562;BME280;43397;51.530;5.974;2022-10-23T09:48:12;100563.38;;;14.78;100.00
57562;BME280;43397;51.530;5.974;2022-10-23T09:50:46;100566.13;;;14.76;100.00
57562;BME280;43397;51.530;5.974;2022-10-23T09:53:15;100568.53;;;14.86;100.00
57562;BME280;43397;51.530;5.974;2022-10-23T09:55:42;100567.75;;;14.80;100.00
57562;BME280;43397;51.530;5.974;2022-10-23T09:58:22;100562.41;;;14.80;100.00
57562;BME280;43397;51.530;5.974;2022-10-23T10:00:49;100558.72;;;14.85;100.00
57562;BME280;43397;51.530;5.974;2022-10-23T10:03:22;100554.13;;;14.90;100.00
57562;BME280;43397;51.530;5.974;2022-10-23T10:05:54;100557.72;;;14.89;100.00
57562;BME280;43397;51.530;5.974;2022-10-23T10:08:26;100552.41;;;14.87;100.00
57562;BME280;43397;51.530;5.974;2022-10-23T10:10:57;100544.28;;;14.90;100.00
57562;BME280;43397;51.530;5.974;2022-10-23T10:13:36;100543.28;;;14.94;100.00
57562;BME280;43397;51.530;5.974;2022-10-23T10:16:06;100550.38;;;14.95;100.00
57562;BME280;43397;51.530;5.974;2022-10-23T10:18:40;100539.66;;;14.95;100.00
57562;BME280;43397;51.530;5.974;2022-10-23T10:21:13;100538.84;;;14.93;100.00
57562;BME280;43397;51.530;5.974;2022-10-23T10:23:46;100522.75;;;14.95;100.00
57562;BME280;43397;51.530;5.974;2022-10-23T10:26:25;100526.97;;;15.02;100.00
57562;BME280;43397;51.530;5.974;2022-10-23T10:29:05;100523.38;;;15.03;100.00
57562;BME280;43397;51.530;5.974;2022-10-23T10:31:44;100513.50;;;15.05;100.00
57562;BME280;43397;51.530;5.974;2022-10-23T10:34:20;100500.94;;;15.07;100.00
57562;BME280;43397;51.530;5.974;2022-10-23T10:36:52;100484.81;;;15.09;100.00
57562;BME280;43397;51.530;5.974;2022-10-23T10:39:33;100475.88;;;15.10;100.00
57562;BME280;43397;51.530;5.974;2022-10-23T10:42:13;100470.47;;;15.11;100.00
57562;BME280;43397;51.530;5.974;2022-10-23T10:44:49;100477.47;;;15.15;100.00
57562;BME280;43397;51.530;5.974;2022-10-23T10:47:20;100477.25;;;15.21;100.00
57562;BME280;43397;51.530;5.974;2022-10-23T10:49:51;100478.03;;;15.25;100.00
57562;BME280;43397;51.530;5.974;2022-10-23T10:52:25;100471.69;;;15.28;100.00
57562;BME280;43397;51.530;5.974;2022-10-23T10:55:02;100467.78;;;15.38;100.00
57562;BME280;43397;51.530;5.974;2022-10-23T10:57:31;100464.59;;;15.53;100.00
57562;BME280;43397;51.530;5.974;2022-10-23T11:00:00;100460.09;;;15.54;100.00
57562;BME280;43397;51.530;5.974;2022-10-23T11:02:33;100472.13;;;15.67;100.00
57562;BME280;43397;51.530;5.974;2022-10-23T11:05:16;100458.53;;;15.73;100.00
57562;BME280;43397;51.530;5.974;2022-10-23T11:07:53;100461.06;;;15.78;100.00
57562;BME280;43397;51.530;5.974;2022-10-23T11:10:20;100460.19;;;15.77;100.00
57562;BME280;43397;51.530;5.974;2022-10-23T11:12:46;100436.13;;;15.76;100.00
57562;BME280;43397;51.530;5.974;2022-10-23T11:15:14;100437.00;;;15.76;100.00
57562;BME280;43397;51.530;5.974;2022-10-23T11:17:44;100438.81;;;15.76;100.00
57562;BME280;43397;51.530;5.974;2022-10-23T11:20:26;100433.09;;;15.85;100.00
57562;BME280;43397;51.530;5.974;2022-10-23T11:22:59;100436.72;;;15.84;100.00
57562;BME280;43397;51.530;5.974;2022-10-23T11:25:45;100443.69;;;15.90;100.00
57562;BME280;43397;51.530;5.974;2022-10-23T11:28:21;100426.28;;;16.00;100.00
57562;BME280;43397;51.530;5.974;2022-10-23T11:31:04;100408.31;;;16.03;100.00
57562;BME280;43397;51.530;5.974;2022-10-23T11:33:55;100397.41;;;16.08;100.00
57562;BME280;43397;51.530;5.974;2022-10-23T11:36:41;100393.25;;;16.23;100.00
57562;BME280;43397;51.530;5.974;2022-10-23T11:39:16;100381.97;;;16.37;100.00
57562;BME280;43397;51.530;5.974;2022-10-23T11:41:48;100383.38;;;16.47;100.00
57562;BME280;43397;51.530;5.974;2022-10-23T11:44:23;100368.84;;;16.53;100.00
57562;BME280;43397;51.530;5.974;2022-10-23T11:46:59;100382.59;;;16.65;100.00
57562;BME280;43397;51.530;5.974;2022-10-23T11:49:25;100381.53;;;16.70;100.00
57562;BME280;43397;51.530;5.974;2022-10-23T11:52:00;100381.19;;;16.79;100.00
57562;BME280;43397;51.530;5.974;2022-10-23T11:54:26;100378.00;;;16.91;100.00
57562;BME280;43397;51.530;5.974;2022-10-23T11:57:07;100366.75;;;17.03;100.00
57562;BME280;43397;51.530;5.974;2022-10-23T11:59:35;100361.84;;;17.13;100.00
57562;BME280;43397;51.530;5.974;2022-10-23T12:02:20;100364.34;;;17.18;100.00
57562;BME280;43397;51.530;5.974;2022-10-23T12:04:49;100352.13;;;17.31;100.00
57562;BME280;43397;51.530;5.974;2022-10-23T12:07:22;100357.50;;;17.31;100.00
57562;BME280;43397;51.530;5.974;2022-10-23T12:09:52;100362.78;;;17.33;100.00
57562;BME280;43397;51.530;5.974;2022-10-23T12:12:28;100348.34;;;17.35;100.00
57562;BME280;43397;51.530;5.974;2022-10-23T12:15:07;100341.91;;;17.39;100.00
57562;BME280;43397;51.530;5.974;2022-10-23T12:17:35;100343.66;;;17.40;100.00
57562;BME280;43397;51.530;5.974;2022-10-23T12:20:16;100347.38;;;17.38;100.00
57562;BME280;43397;51.530;5.974;2022-10-23T12:22:49;100348.94;;;17.42;100.00
57562;BME280;43397;51.530;5.974;2022-10-23T12:25:23;100349.41;;;17.52;100.00
57562;BME280;43397;51.530;5.974;2022-10-23T12:28:01;100339.75;;;17.47;100.00
57562;BME280;43397;51.530;5.974;2022-10-23T12:30:34;100337.53;;;17.57;100.00
57562;BME280;43397;51.530;5.974;2022-10-23T12:33:13;100335.44;;;17.64;100.00
57562;BME280;43397;51.530;5.974;2022-10-23T12:36:15;100338.94;;;17.66;100.00
57562;BME280;43397;51.530;5.974;2022-10-23T12:38:46;100329.84;;;17.68;100.00
57562;BME280;43397;51.530;5.974;2022-10-23T12:41:13;100336.91;;;17.71;100.00
57562;BME280;43397;51.530;5.974;2022-10-23T12:43:42;100317.13;;;17.72;100.00
57562;BME280;43397;51.530;5.974;2022-10-23T12:46:27;100312.44;;;17.77;100.00
57562;BME280;43397;51.530;5.974;2022-10-23T12:48:54;100305.22;;;17.78;100.00
57562;BME280;43397;51.530;5.974;2022-10-23T12:51:22;100308.19;;;17.72;100.00
57562;BME280;43397;51.530;5.974;2022-10-23T12:53:50;100307.31;;;17.71;100.00
57562;BME280;43397;51.530;5.974;2022-10-23T12:56:15;100301.78;;;17.74;100.00